KENW/ENW METAR and TAF weather

Enter ICAO airport designator
Station Type Date Time Source
KENW METAR 2020/03/31 10:53 UTC NOAA

KENW 311053Z AUTO 01006KT 10SM OVC014 03/M01 A3009 RMK AO2 SLP194 T00281006


Station Type Date Time Source
KENW Decoded METAR 2020/03/31 10:53 UTC NOAA

KENOSHA REGIONAL AIRPORT, WI, United States (KENW) 42-36N 087-56W 219M
Mar 31, 2020 - 06:53 AM EDT / 2020.03.31 1053 UTC
Wind: from the N (010 degrees) at 7 MPH (6 KT):0
Visibility: 10 mile(s):0
Sky conditions: overcast
Temperature: 37.0 F (2.8 C)
Dew Point: 30.9 F (-0.6 C)
Relative Humidity: 78%
Pressure (altimeter): 30.09 in. Hg (1018 hPa)
ob: KENW 311053Z AUTO 01006KT 10SM OVC014 03/M01 A3009 RMK AO2 SLP194 T00281006
cycle: 11

Station Type Date Time Source
KENW TAF 2020/03/31 08:10 UTC NOAA

TAF
AMD KENW 310808Z 3108/0106 01007KT P6SM OVC015
FM311300 02009KT P6SM OVC012
FM312100 02010KT P6SM BKN025
FM010300 01005KT P6SM BKN030

Example: see airport list